Time;durP1;ratioP1;P1;durP2;ratioP2;P2;SDS_P1;SDS_P2;PMS_P1;PMS_P2;Temp;Humidity;BMP_temperature;BMP_pressure;BME280_temperature;BME280_humidity;BME280_pressure;Samples;Min_cycle;Max_cycle;Signal;HPM_P1;HPM_P2
2022/12/24 00:01:58;;;;;;;;;3.25;1.75;;;;;;;;5044511;28;61768;-76
2022/12/24 00:04:23;;;;;;;;;8.25;3.50;;;;;;;;5044798;28;61927;-76
2022/12/24 00:06:48;;;;;;;;;7.50;4.25;;;;;;;;5045004;28;62077;-76
2022/12/24 00:09:14;;;;;;;;;6.00;2.00;;;;;;;;5043788;28;61865;-76
2022/12/24 00:11:39;;;;;;;;;4.00;2.25;;;;;;;;5043402;28;62007;-76
2022/12/24 00:14:04;;;;;;;;;8.00;2.00;;;;;;;;5044516;28;61996;-76
2022/12/24 00:16:29;;;;;;;;;5.75;2.00;;;;;;;;5044536;28;61864;-76
2022/12/24 00:18:55;;;;;;;;;2.50;2.50;;;;;;;;5043836;28;62587;-76
2022/12/24 00:21:20;;;;;;;;;7.75;4.00;;;;;;;;5044437;28;61880;-77
2022/12/24 00:23:45;;;;;;;;;3.00;1.50;;;;;;;;5044570;28;61786;-77
2022/12/24 00:26:11;;;;;;;;;5.00;2.50;;;;;;;;5044770;28;61897;-76
2022/12/24 00:28:37;;;;;;;;;2.75;2.00;;;;;;;;5044011;28;62640;-76
2022/12/24 00:31:10;;;;;;;;;7.25;3.00;;;;;;;;5042421;28;61742;-76
2022/12/24 00:33:35;;;;;;;;;9.25;4.50;;;;;;;;5044479;28;62009;-76
2022/12/24 00:36:01;;;;;;;;;8.25;4.00;;;;;;;;5044347;28;61813;-76
2022/12/24 00:38:26;;;;;;;;;3.75;2.75;;;;;;;;5043867;28;61988;-76
2022/12/24 00:40:56;;;;;;;;;4.25;1.00;;;;;;;;5042844;28;62070;-76
2022/12/24 00:43:21;;;;;;;;;1.75;1.50;;;;;;;;5044228;28;61944;-76
2022/12/24 00:45:46;;;;;;;;;5.00;3.50;;;;;;;;5044275;28;61833;-76
2022/12/24 00:48:12;;;;;;;;;5.00;1.00;;;;;;;;5043291;28;62002;-76
2022/12/24 00:50:37;;;;;;;;;7.00;1.75;;;;;;;;5042826;28;61758;-76
2022/12/24 00:53:02;;;;;;;;;6.00;1.25;;;;;;;;5044018;28;61936;-76
2022/12/24 00:55:27;;;;;;;;;5.75;2.00;;;;;;;;5044138;28;61873;-76
2022/12/24 00:57:53;;;;;;;;;6.75;1.00;;;;;;;;5043632;28;61725;-76
2022/12/24 01:00:18;;;;;;;;;5.00;2.75;;;;;;;;5042083;28;61944;-76
2022/12/24 01:02:43;;;;;;;;;5.25;2.00;;;;;;;;5043867;28;61872;-76
2022/12/24 01:05:10;;;;;;;;;2.25;2.00;;;;;;;;5043958;28;61838;-76
2022/12/24 01:07:36;;;;;;;;;4.25;3.50;;;;;;;;5041952;28;63681;-76
2022/12/24 01:10:03;;;;;;;;;6.00;2.50;;;;;;;;5031243;28;64868;-76
2022/12/24 01:12:28;;;;;;;;;9.50;2.50;;;;;;;;5023825;28;61628;-76
2022/12/24 01:14:53;;;;;;;;;7.75;2.50;;;;;;;;5022265;28;62208;-76
2022/12/24 01:17:18;;;;;;;;;1.50;1.25;;;;;;;;5022856;28;62720;-76
2022/12/24 01:19:44;;;;;;;;;2.50;2.00;;;;;;;;5023559;28;61804;-76
2022/12/24 01:22:09;;;;;;;;;4.50;2.25;;;;;;;;5023287;28;61732;-76
2022/12/24 01:24:34;;;;;;;;;2.75;1.00;;;;;;;;5023735;28;61961;-76
2022/12/24 01:26:59;;;;;;;;;5.25;3.00;;;;;;;;5021764;28;64870;-76
2022/12/24 01:29:25;;;;;;;;;5.50;2.50;;;;;;;;5023094;28;61715;-76
2022/12/24 01:31:50;;;;;;;;;4.50;3.00;;;;;;;;5023469;28;61677;-76
2022/12/24 01:34:15;;;;;;;;;6.75;3.50;;;;;;;;5022031;28;61757;-76
2022/12/24 01:36:41;;;;;;;;;1.75;1.75;;;;;;;;5022934;28;61684;-76
2022/12/24 01:39:06;;;;;;;;;4.00;2.75;;;;;;;;5023516;28;61896;-76
2022/12/24 01:44:16;;;;;;;;;4.75;2.25;;;;;;;;5023384;28;62107;-76
2022/12/24 01:46:41;;;;;;;;;8.50;3.00;;;;;;;;5022454;28;61751;-76
2022/12/24 01:49:10;;;;;;;;;4.75;3.75;;;;;;;;5023134;28;61823;-76
2022/12/24 01:51:35;;;;;;;;;7.50;2.50;;;;;;;;5023184;28;62012;-76
2022/12/24 01:54:12;;;;;;;;;3.00;1.50;;;;;;;;5023344;28;61719;-76
2022/12/24 01:56:43;;;;;;;;;7.00;2.50;;;;;;;;5022731;28;61937;-76
2022/12/24 01:59:10;;;;;;;;;5.25;3.50;;;;;;;;5022918;28;62059;-76
2022/12/24 02:01:35;;;;;;;;;3.25;2.00;;;;;;;;5021330;28;61847;-76
2022/12/24 02:04:08;;;;;;;;;5.50;3.50;;;;;;;;5023035;28;61860;-76
2022/12/24 02:06:33;;;;;;;;;7.25;2.50;;;;;;;;5022343;28;62048;-76
2022/12/24 02:08:58;;;;;;;;;6.25;3.75;;;;;;;;5028617;28;61843;-76
2022/12/24 02:11:24;;;;;;;;;4.75;2.75;;;;;;;;5042705;28;62002;-76
2022/12/24 02:13:54;;;;;;;;;2.00;2.00;;;;;;;;5043100;28;61726;-76
2022/12/24 02:16:25;;;;;;;;;7.50;2.25;;;;;;;;5041634;28;62679;-76
2022/12/24 02:18:51;;;;;;;;;7.00;0.75;;;;;;;;5042645;28;61838;-76
2022/12/24 02:21:16;;;;;;;;;5.00;3.75;;;;;;;;5042932;28;61821;-76
2022/12/24 02:23:41;;;;;;;;;6.25;2.50;;;;;;;;5042657;28;62078;-76
2022/12/24 02:26:15;;;;;;;;;10.00;5.00;;;;;;;;5042104;28;61931;-76
2022/12/24 02:28:52;;;;;;;;;8.25;3.25;;;;;;;;5042226;28;61730;-76
2022/12/24 02:31:24;;;;;;;;;3.50;3.00;;;;;;;;5042442;28;61941;-76
2022/12/24 02:33:49;;;;;;;;;6.00;2.00;;;;;;;;5042822;28;61841;-76
2022/12/24 02:36:19;;;;;;;;;4.00;3.25;;;;;;;;5041900;28;61789;-76
2022/12/24 02:38:51;;;;;;;;;8.00;2.75;;;;;;;;5041015;28;61858;-76
2022/12/24 02:41:19;;;;;;;;;9.00;2.50;;;;;;;;5042224;28;61893;-76
2022/12/24 02:43:45;;;;;;;;;5.00;1.75;;;;;;;;5041418;28;61730;-76
2022/12/24 02:46:13;;;;;;;;;8.25;3.00;;;;;;;;5041484;28;62529;-75
2022/12/24 02:48:40;;;;;;;;;5.00;3.50;;;;;;;;5040639;28;62291;-77
2022/12/24 02:51:07;;;;;;;;;9.75;3.75;;;;;;;;5042360;28;61785;-76
2022/12/24 02:53:32;;;;;;;;;6.25;2.00;;;;;;;;5040912;28;61841;-76
2022/12/24 02:56:16;;;;;;;;;8.00;2.50;;;;;;;;5041574;28;61847;-76
2022/12/24 02:59:03;;;;;;;;;7.25;3.00;;;;;;;;5041905;28;61961;-76
2022/12/24 03:01:31;;;;;;;;;6.50;3.75;;;;;;;;5040554;28;61923;-76
2022/12/24 03:04:15;;;;;;;;;9.00;2.50;;;;;;;;5042482;28;61815;-76
2022/12/24 03:06:40;;;;;;;;;4.00;3.00;;;;;;;;5039993;28;63619;-76
2022/12/24 03:09:14;;;;;;;;;6.75;3.25;;;;;;;;5041815;28;61838;-76
2022/12/24 03:11:43;;;;;;;;;12.75;2.75;;;;;;;;5041701;28;61934;-76
2022/12/24 03:14:09;;;;;;;;;9.50;2.75;;;;;;;;5043512;28;61801;-75
2022/12/24 03:16:34;;;;;;;;;2.75;1.75;;;;;;;;5043369;28;63868;-76
2022/12/24 03:18:59;;;;;;;;;5.25;3.00;;;;;;;;5045227;28;61880;-76
2022/12/24 03:21:28;;;;;;;;;5.00;3.25;;;;;;;;5045413;28;61754;-76
2022/12/24 03:23:53;;;;;;;;;9.00;3.75;;;;;;;;5044290;28;61955;-76
2022/12/24 03:26:19;;;;;;;;;7.25;4.00;;;;;;;;5044649;28;61749;-76
2022/12/24 03:28:45;;;;;;;;;5.75;2.50;;;;;;;;5043710;28;61912;-76
2022/12/24 03:31:10;;;;;;;;;6.25;1.75;;;;;;;;5045369;28;61738;-76
2022/12/24 03:33:36;;;;;;;;;6.00;3.00;;;;;;;;5044081;28;62015;-76
2022/12/24 03:36:01;;;;;;;;;6.75;3.00;;;;;;;;5044589;28;62689;-76
2022/12/24 03:38:26;;;;;;;;;6.25;2.00;;;;;;;;5045112;28;61809;-76
2022/12/24 03:40:52;;;;;;;;;8.00;2.25;;;;;;;;5045009;28;62042;-75
2022/12/24 03:43:17;;;;;;;;;7.00;3.00;;;;;;;;5045355;28;61741;-76
2022/12/24 03:45:42;;;;;;;;;8.75;3.75;;;;;;;;5044416;28;62682;-75
2022/12/24 03:48:08;;;;;;;;;2.25;1.50;;;;;;;;5044926;28;61825;-75
2022/12/24 03:50:33;;;;;;;;;4.25;3.00;;;;;;;;5044915;28;61839;-75
2022/12/24 03:52:58;;;;;;;;;10.00;4.25;;;;;;;;5045171;28;61883;-76
2022/12/24 03:55:24;;;;;;;;;6.75;2.25;;;;;;;;5044152;28;61765;-75
2022/12/24 03:57:49;;;;;;;;;10.25;4.00;;;;;;;;5045104;28;62075;-75
2022/12/24 04:00:15;;;;;;;;;5.25;3.25;;;;;;;;5044927;28;61974;-76
2022/12/24 04:02:40;;;;;;;;;6.50;4.25;;;;;;;;5044758;28;61957;-75
2022/12/24 04:05:06;;;;;;;;;5.25;3.50;;;;;;;;5043002;28;64111;-76
2022/12/24 04:07:32;;;;;;;;;5.25;2.50;;;;;;;;5044580;28;61659;-76
2022/12/24 04:09:57;;;;;;;;;4.00;2.25;;;;;;;;5044321;28;61772;-75
2022/12/24 04:12:22;;;;;;;;;4.00;4.00;;;;;;;;5044900;28;62059;-75
2022/12/24 04:14:49;;;;;;;;;2.50;2.00;;;;;;;;5043879;28;61687;-75
2022/12/24 04:17:14;;;;;;;;;6.00;4.00;;;;;;;;5043163;28;61872;-76
2022/12/24 04:19:40;;;;;;;;;3.00;2.25;;;;;;;;5042873;28;61978;-76
2022/12/24 04:22:05;;;;;;;;;3.00;2.50;;;;;;;;5044764;28;61745;-75
2022/12/24 04:24:30;;;;;;;;;5.50;2.25;;;;;;;;5042285;28;64989;-75
2022/12/24 04:26:55;;;;;;;;;2.50;2.50;;;;;;;;5044241;28;61753;-75
2022/12/24 04:29:20;;;;;;;;;5.25;2.75;;;;;;;;5044622;28;61697;-75
2022/12/24 04:31:46;;;;;;;;;9.25;2.25;;;;;;;;5044417;28;62148;-76
2022/12/24 04:34:11;;;;;;;;;3.50;3.25;;;;;;;;5043858;28;61846;-75
2022/12/24 04:36:36;;;;;;;;;5.00;4.00;;;;;;;;5044209;28;61821;-75
2022/12/24 04:39:02;;;;;;;;;7.00;2.50;;;;;;;;5044227;28;61668;-75
2022/12/24 04:41:27;;;;;;;;;4.00;2.00;;;;;;;;5044509;28;61708;-75
2022/12/24 04:43:53;;;;;;;;;4.50;2.00;;;;;;;;5043526;28;62667;-75
2022/12/24 04:46:20;;;;;;;;;3.50;3.00;;;;;;;;5044047;28;62167;-76
2022/12/24 04:48:47;;;;;;;;;7.50;3.00;;;;;;;;5043857;28;61997;-75
2022/12/24 04:51:13;;;;;;;;;3.00;2.50;;;;;;;;5044448;28;61902;-75
2022/12/24 04:53:39;;;;;;;;;2.75;2.00;;;;;;;;5043289;28;61757;-75
2022/12/24 04:56:15;;;;;;;;;5.50;3.00;;;;;;;;5044069;28;61740;-75
2022/12/24 04:58:40;;;;;;;;;3.75;2.50;;;;;;;;5044015;28;61842;-75
2022/12/24 05:01:12;;;;;;;;;11.50;4.75;;;;;;;;5044148;28;61687;-75
2022/12/24 05:03:37;;;;;;;;;5.75;2.75;;;;;;;;5043428;28;61878;-75
2022/12/24 05:06:03;;;;;;;;;11.75;2.25;;;;;;;;5043448;28;61842;-75
2022/12/24 05:08:28;;;;;;;;;4.75;3.00;;;;;;;;5044051;28;61868;-75
2022/12/24 05:10:54;;;;;;;;;2.00;1.50;;;;;;;;5043775;28;61771;-75
2022/12/24 05:13:19;;;;;;;;;3.75;3.25;;;;;;;;5043255;28;61753;-75
2022/12/24 05:15:45;;;;;;;;;6.00;3.25;;;;;;;;5043594;28;61677;-76
2022/12/24 05:18:10;;;;;;;;;3.75;2.25;;;;;;;;5042279;28;61753;-75
2022/12/24 05:20:35;;;;;;;;;3.50;1.50;;;;;;;;5043603;28;61673;-76
2022/12/24 05:28:28;;;;;;;;;2.75;2.00;;;;;;;;5043579;28;61763;-76
2022/12/24 05:30:54;;;;;;;;;7.50;3.00;;;;;;;;5043673;28;62086;-76
2022/12/24 05:33:19;;;;;;;;;5.00;2.00;;;;;;;;5041379;28;63547;-75
2022/12/24 05:35:44;;;;;;;;;2.25;2.00;;;;;;;;5043042;28;61829;-75
2022/12/24 05:38:09;;;;;;;;;6.75;3.00;;;;;;;;5042798;28;61871;-75
2022/12/24 05:40:35;;;;;;;;;8.00;2.00;;;;;;;;5043756;28;61667;-75
2022/12/24 05:43:00;;;;;;;;;5.00;3.00;;;;;;;;5042628;28;61736;-76
2022/12/24 05:45:25;;;;;;;;;8.75;3.75;;;;;;;;5041866;28;61722;-76
2022/12/24 05:47:50;;;;;;;;;7.00;2.50;;;;;;;;5043214;28;61778;-76
2022/12/24 05:50:16;;;;;;;;;7.75;3.50;;;;;;;;5043062;28;61838;-75
2022/12/24 05:52:41;;;;;;;;;4.75;2.75;;;;;;;;5042573;28;61763;-76
2022/12/24 05:55:07;;;;;;;;;3.25;2.00;;;;;;;;5041622;28;61816;-76
2022/12/24 05:57:33;;;;;;;;;5.50;2.25;;;;;;;;5043348;28;61709;-75
2022/12/24 05:59:58;;;;;;;;;8.25;3.00;;;;;;;;5041756;28;62048;-76
2022/12/24 06:02:23;;;;;;;;;5.50;2.50;;;;;;;;5042402;28;62719;-76
2022/12/24 06:04:48;;;;;;;;;5.50;3.00;;;;;;;;5042748;28;61862;-76
2022/12/24 06:07:14;;;;;;;;;5.75;3.00;;;;;;;;5043256;28;62453;-75
2022/12/24 06:09:39;;;;;;;;;5.75;4.50;;;;;;;;5041454;28;62181;-75
2022/12/24 06:12:04;;;;;;;;;5.75;3.00;;;;;;;;5041889;28;61878;-75
2022/12/24 06:14:30;;;;;;;;;10.25;4.25;;;;;;;;5041646;28;61959;-75
2022/12/24 06:16:55;;;;;;;;;4.25;2.50;;;;;;;;5042581;28;62053;-76
2022/12/24 06:19:20;;;;;;;;;5.25;3.00;;;;;;;;5041187;28;61926;-75
2022/12/24 06:21:45;;;;;;;;;8.00;2.00;;;;;;;;5040965;28;63662;-75
2022/12/24 06:24:11;;;;;;;;;4.00;3.25;;;;;;;;5042202;28;61914;-75
2022/12/24 06:26:36;;;;;;;;;7.25;1.75;;;;;;;;5041440;28;62162;-76
2022/12/24 06:29:01;;;;;;;;;5.50;4.25;;;;;;;;5042698;28;61952;-75
2022/12/24 06:31:27;;;;;;;;;5.25;5.25;;;;;;;;5041994;28;63198;-76
2022/12/24 06:33:52;;;;;;;;;8.50;3.00;;;;;;;;5042298;28;61854;-76
2022/12/24 06:36:22;;;;;;;;;2.00;2.00;;;;;;;;5042531;28;61789;-75
2022/12/24 06:38:48;;;;;;;;;4.00;2.25;;;;;;;;5041466;28;62117;-75
2022/12/24 06:41:13;;;;;;;;;1.50;1.50;;;;;;;;5041875;28;61666;-76
2022/12/24 06:43:41;;;;;;;;;2.00;1.00;;;;;;;;5042275;28;61909;-75
2022/12/24 06:46:07;;;;;;;;;7.25;3.00;;;;;;;;5040849;28;62089;-75
2022/12/24 06:48:32;;;;;;;;;3.25;1.25;;;;;;;;5039916;28;62242;-75
2022/12/24 06:50:57;;;;;;;;;3.75;1.00;;;;;;;;5040065;28;64962;-75
2022/12/24 06:53:23;;;;;;;;;6.25;2.00;;;;;;;;5042443;28;61763;-75
2022/12/24 06:55:48;;;;;;;;;3.00;3.00;;;;;;;;5042330;28;61680;-76
2022/12/24 06:58:13;;;;;;;;;2.25;2.00;;;;;;;;5042277;28;61777;-75
2022/12/24 07:00:39;;;;;;;;;1.25;1.25;;;;;;;;5040258;28;63876;-75
2022/12/24 07:03:04;;;;;;;;;3.00;1.25;;;;;;;;5041939;28;61959;-75
2022/12/24 07:05:29;;;;;;;;;7.25;3.50;;;;;;;;5042202;28;61725;-76
2022/12/24 07:07:55;;;;;;;;;4.00;3.00;;;;;;;;5042399;28;62002;-75
2022/12/24 07:10:20;;;;;;;;;5.00;2.50;;;;;;;;5041071;28;61778;-76
2022/12/24 07:12:46;;;;;;;;;6.00;1.00;;;;;;;;5042162;28;62152;-75
2022/12/24 07:15:12;;;;;;;;;2.75;1.25;;;;;;;;5042024;28;61773;-75
2022/12/24 07:17:37;;;;;;;;;5.75;2.00;;;;;;;;5041900;28;61763;-75
2022/12/24 07:20:03;;;;;;;;;2.00;1.00;;;;;;;;5040606;28;61906;-75
2022/12/24 07:22:28;;;;;;;;;2.50;1.00;;;;;;;;5041904;28;61753;-76
2022/12/24 07:24:54;;;;;;;;;2.25;1.25;;;;;;;;5040545;28;61929;-76
2022/12/24 07:27:19;;;;;;;;;2.25;0.25;;;;;;;;5041949;28;61991;-75
2022/12/24 07:29:46;;;;;;;;;3.00;2.50;;;;;;;;5041258;28;62924;-75
2022/12/24 07:32:11;;;;;;;;;2.50;1.00;;;;;;;;5041244;28;61900;-75
2022/12/24 07:34:38;;;;;;;;;3.25;1.00;;;;;;;;5041921;28;61987;-76
2022/12/24 07:37:03;;;;;;;;;2.00;1.25;;;;;;;;5041953;28;61841;-76
2022/12/24 07:39:29;;;;;;;;;3.50;1.00;;;;;;;;5041099;28;61745;-76
2022/12/24 07:41:54;;;;;;;;;2.00;0.00;;;;;;;;5040500;28;61821;-75
2022/12/24 07:44:19;;;;;;;;;2.75;1.00;;;;;;;;5040240;28;62170;-76
2022/12/24 07:46:44;;;;;;;;;0.50;0.50;;;;;;;;5040269;28;62072;-75
2022/12/24 07:49:10;;;;;;;;;3.75;1.00;;;;;;;;5039457;28;63502;-75
2022/12/24 07:51:35;;;;;;;;;0.75;0.50;;;;;;;;5040381;28;62149;-76
2022/12/24 07:54:00;;;;;;;;;5.50;1.00;;;;;;;;5040296;28;62427;-75
2022/12/24 07:56:26;;;;;;;;;1.50;1.00;;;;;;;;5041664;28;61912;-76
2022/12/24 07:58:51;;;;;;;;;2.50;1.00;;;;;;;;5040785;28;61796;-75
2022/12/24 08:01:17;;;;;;;;;4.50;1.00;;;;;;;;5043968;28;61854;-76
2022/12/24 08:03:42;;;;;;;;;1.75;0.75;;;;;;;;5044759;28;61690;-76
2022/12/24 08:06:08;;;;;;;;;2.00;1.75;;;;;;;;5044866;28;61814;-75
2022/12/24 08:08:33;;;;;;;;;3.25;1.25;;;;;;;;5043892;28;62049;-76
2022/12/24 08:11:02;;;;;;;;;2.00;2.00;;;;;;;;5044691;28;61653;-75
2022/12/24 08:13:28;;;;;;;;;2.50;1.50;;;;;;;;5044586;28;61813;-76
2022/12/24 08:15:53;;;;;;;;;1.75;1.75;;;;;;;;5044614;28;61824;-76
2022/12/24 08:18:18;;;;;;;;;1.00;1.00;;;;;;;;5043822;28;61963;-75
2022/12/24 08:20:44;;;;;;;;;3.00;1.00;;;;;;;;5044488;28;61886;-76
2022/12/24 08:23:09;;;;;;;;;0.75;0.00;;;;;;;;5044582;28;61810;-76
2022/12/24 08:25:34;;;;;;;;;6.00;1.00;;;;;;;;5044555;28;61705;-75
2022/12/24 08:28:00;;;;;;;;;1.00;1.00;;;;;;;;5044079;28;61913;-76
2022/12/24 08:30:25;;;;;;;;;4.75;1.75;;;;;;;;5042953;28;61703;-76
2022/12/24 08:32:50;;;;;;;;;2.00;1.00;;;;;;;;5044376;28;61853;-76
2022/12/24 08:35:16;;;;;;;;;3.25;1.75;;;;;;;;5043144;28;61800;-76
2022/12/24 08:37:41;;;;;;;;;2.50;0.00;;;;;;;;5043862;28;62717;-75
2022/12/24 08:40:08;;;;;;;;;3.00;2.00;;;;;;;;5044291;28;61669;-76
2022/12/24 08:42:34;;;;;;;;;1.25;1.00;;;;;;;;5044485;28;61753;-75
2022/12/24 08:44:59;;;;;;;;;2.00;1.00;;;;;;;;5044193;28;62456;-75
2022/12/24 08:47:24;;;;;;;;;0.25;0.25;;;;;;;;5042055;28;65031;-76
2022/12/24 08:49:49;;;;;;;;;1.50;1.00;;;;;;;;5043904;28;62464;-75
2022/12/24 08:52:15;;;;;;;;;5.00;0.50;;;;;;;;5044186;28;61971;-75
2022/12/24 08:54:40;;;;;;;;;4.50;2.00;;;;;;;;5044283;28;61782;-76
2022/12/24 08:57:05;;;;;;;;;2.25;1.25;;;;;;;;5043344;28;62795;-76
2022/12/24 08:59:30;;;;;;;;;2.75;2.00;;;;;;;;5043519;28;61762;-76
2022/12/24 09:01:56;;;;;;;;;5.00;2.75;;;;;;;;5043803;28;61838;-76
2022/12/24 09:04:21;;;;;;;;;2.75;1.50;;;;;;;;5043916;28;61899;-75
2022/12/24 09:06:46;;;;;;;;;2.75;1.00;;;;;;;;5043219;28;62650;-76
2022/12/24 09:09:11;;;;;;;;;0.00;0.00;;;;;;;;5043692;28;61931;-76
2022/12/24 09:11:37;;;;;;;;;3.00;1.25;;;;;;;;5042577;28;62003;-75
2022/12/24 09:14:02;;;;;;;;;1.50;1.00;;;;;;;;5043693;28;61878;-75
2022/12/24 09:16:27;;;;;;;;;1.50;0.00;;;;;;;;5041608;28;63579;-76
2022/12/24 09:18:53;;;;;;;;;3.00;0.75;;;;;;;;5043429;28;61856;-76
2022/12/24 09:21:18;;;;;;;;;0.50;0.50;;;;;;;;5043910;28;61916;-76
2022/12/24 09:23:46;;;;;;;;;4.50;1.00;;;;;;;;5042002;28;61855;-75
2022/12/24 09:26:19;;;;;;;;;5.50;1.50;;;;;;;;5041539;28;64765;-75
2022/12/24 09:28:44;;;;;;;;;1.50;0.50;;;;;;;;5043029;28;61865;-75
2022/12/24 09:31:10;;;;;;;;;2.25;1.00;;;;;;;;5042044;28;62011;-76
2022/12/24 09:33:37;;;;;;;;;1.00;1.00;;;;;;;;5043166;28;62047;-76
2022/12/24 09:36:03;;;;;;;;;0.00;0.00;;;;;;;;5041598;28;63995;-75
2022/12/24 09:38:29;;;;;;;;;1.25;1.00;;;;;;;;5043161;28;61838;-75
2022/12/24 09:40:55;;;;;;;;;2.00;2.00;;;;;;;;5043447;28;61993;-76
2022/12/24 09:43:25;;;;;;;;;1.25;1.25;;;;;;;;5041905;28;62137;-75
2022/12/24 09:45:50;;;;;;;;;0.00;0.00;;;;;;;;5041488;28;64931;-75
2022/12/24 09:48:20;;;;;;;;;1.00;1.00;;;;;;;;5042717;28;61730;-76
2022/12/24 09:50:54;;;;;;;;;9.50;1.00;;;;;;;;5042885;28;62063;-76
2022/12/24 09:53:28;;;;;;;;;6.00;3.50;;;;;;;;5043445;28;61696;-75
2022/12/24 09:55:58;;;;;;;;;5.00;3.25;;;;;;;;5040989;28;63776;-76
2022/12/24 09:58:24;;;;;;;;;4.50;3.00;;;;;;;;5042964;28;61659;-76
2022/12/24 10:00:50;;;;;;;;;4.00;1.00;;;;;;;;5042815;28;61854;-76
2022/12/24 10:03:16;;;;;;;;;3.50;1.00;;;;;;;;5043115;28;61806;-75
2022/12/24 10:06:00;;;;;;;;;1.75;0.25;;;;;;;;5042187;28;61757;-75
2022/12/24 10:08:40;;;;;;;;;1.00;1.00;;;;;;;;5042907;28;61760;-75
2022/12/24 10:11:06;;;;;;;;;5.00;0.00;;;;;;;;5042985;28;61912;-75
2022/12/24 10:13:43;;;;;;;;;1.75;0.75;;;;;;;;5042737;28;61867;-76
2022/12/24 10:16:16;;;;;;;;;1.75;1.00;;;;;;;;5042243;28;61802;-76
2022/12/24 10:18:51;;;;;;;;;2.25;0.50;;;;;;;;5040871;28;61797;-75
2022/12/24 10:21:35;;;;;;;;;1.00;1.00;;;;;;;;5041407;28;62047;-75
2022/12/24 10:24:01;;;;;;;;;2.75;1.00;;;;;;;;5042487;28;61833;-75
2022/12/24 10:26:29;;;;;;;;;1.75;0.50;;;;;;;;5042009;28;61954;-75
2022/12/24 10:29:05;;;;;;;;;2.25;1.75;;;;;;;;5042449;28;61935;-75
2022/12/24 10:31:33;;;;;;;;;1.00;1.00;;;;;;;;5041204;28;61872;-75
2022/12/24 10:34:05;;;;;;;;;2.00;2.00;;;;;;;;5041263;28;62034;-75
2022/12/24 10:36:31;;;;;;;;;4.00;2.00;;;;;;;;5040723;28;64412;-77
2022/12/24 10:38:56;;;;;;;;;1.00;0.00;;;;;;;;5042245;28;61898;-75
2022/12/24 10:41:23;;;;;;;;;1.75;1.00;;;;;;;;5042187;28;61842;-75
2022/12/24 10:43:48;;;;;;;;;2.25;1.50;;;;;;;;5042402;28;61677;-75
2022/12/24 10:46:14;;;;;;;;;1.75;1.00;;;;;;;;5041931;28;61606;-76
2022/12/24 10:48:41;;;;;;;;;3.50;1.00;;;;;;;;5040451;28;61911;-75
2022/12/24 10:51:13;;;;;;;;;2.75;0.75;;;;;;;;5042314;28;61850;-75
2022/12/24 10:53:38;;;;;;;;;2.25;2.00;;;;;;;;5042395;28;61885;-75
2022/12/24 10:56:05;;;;;;;;;1.25;1.25;;;;;;;;5041453;28;61871;-75
2022/12/24 10:58:31;;;;;;;;;0.00;0.00;;;;;;;;5042537;28;61812;-75
2022/12/24 11:00:56;;;;;;;;;5.00;1.00;;;;;;;;5041982;28;61985;-75
2022/12/24 11:03:27;;;;;;;;;0.75;0.75;;;;;;;;5042074;28;61931;-76
2022/12/24 11:06:05;;;;;;;;;1.25;1.25;;;;;;;;5040198;28;65135;-75
2022/12/24 11:08:31;;;;;;;;;3.00;1.00;;;;;;;;5041836;28;61988;-75
2022/12/24 11:11:06;;;;;;;;;3.00;1.00;;;;;;;;5041775;28;61863;-76
2022/12/24 11:13:33;;;;;;;;;2.75;1.00;;;;;;;;5042269;28;61821;-76
2022/12/24 11:16:01;;;;;;;;;1.00;0.00;;;;;;;;5041191;28;61797;-75
2022/12/24 11:18:27;;;;;;;;;2.00;1.00;;;;;;;;5042138;28;61702;-76
2022/12/24 11:20:53;;;;;;;;;1.00;1.00;;;;;;;;5040292;28;61759;-76
2022/12/24 11:23:18;;;;;;;;;3.00;2.00;;;;;;;;5041830;28;61981;-76
2022/12/24 11:25:49;;;;;;;;;1.75;1.75;;;;;;;;5041167;28;61735;-76
2022/12/24 11:28:25;;;;;;;;;3.75;1.00;;;;;;;;5040687;28;61757;-76
2022/12/24 11:30:55;;;;;;;;;1.00;1.00;;;;;;;;5041690;28;61710;-76
2022/12/24 11:33:21;;;;;;;;;1.00;1.00;;;;;;;;5041984;28;62468;-76
2022/12/24 11:35:48;;;;;;;;;1.00;1.00;;;;;;;;5043202;28;61984;-76
2022/12/24 11:38:19;;;;;;;;;1.00;1.00;;;;;;;;5043579;28;61801;-76
2022/12/24 11:40:46;;;;;;;;;8.00;1.00;;;;;;;;5045241;28;61872;-76
2022/12/24 11:43:20;;;;;;;;;2.00;0.00;;;;;;;;5045424;28;62150;-76
2022/12/24 11:45:55;;;;;;;;;0.00;0.00;;;;;;;;5043119;28;64910;-76
2022/12/24 11:48:31;;;;;;;;;2.00;1.00;;;;;;;;5044995;28;61908;-77
2022/12/24 11:51:04;;;;;;;;;2.75;1.00;;;;;;;;5044721;28;61738;-76
2022/12/24 11:53:32;;;;;;;;;0.75;0.75;;;;;;;;5044949;28;61710;-76
2022/12/24 11:55:59;;;;;;;;;1.00;0.00;;;;;;;;5044374;28;61800;-75
2022/12/24 11:58:34;;;;;;;;;2.00;1.00;;;;;;;;5044901;28;61800;-77
2022/12/24 12:01:23;;;;;;;;;2.00;2.00;;;;;;;;5044874;28;61815;-78
2022/12/24 12:04:00;;;;;;;;;1.00;1.00;;;;;;;;5044554;28;61987;-77
2022/12/24 12:06:45;;;;;;;;;4.50;1.25;;;;;;;;5044307;28;61812;-77
2022/12/24 12:09:19;;;;;;;;;4.00;1.50;;;;;;;;5044371;28;62119;-77
2022/12/24 12:11:47;;;;;;;;;1.50;0.50;;;;;;;;5044797;28;61869;-77
2022/12/24 12:14:25;;;;;;;;;7.00;1.00;;;;;;;;5044807;28;61881;-77
2022/12/24 12:17:13;;;;;;;;;2.25;1.75;;;;;;;;5043618;28;62065;-77
2022/12/24 12:19:43;;;;;;;;;2.75;1.00;;;;;;;;5044260;28;61993;-77
2022/12/24 12:22:23;;;;;;;;;3.00;1.00;;;;;;;;5044135;28;61713;-75
2022/12/24 12:24:51;;;;;;;;;1.50;1.00;;;;;;;;5044616;28;61903;-77
2022/12/24 12:27:16;;;;;;;;;0.25;0.25;;;;;;;;5042677;28;63688;-77
2022/12/24 12:29:45;;;;;;;;;1.75;1.75;;;;;;;;5044364;28;62011;-77
2022/12/24 12:32:15;;;;;;;;;4.00;1.00;;;;;;;;5044374;28;62009;-77
2022/12/24 12:34:49;;;;;;;;;0.00;0.00;;;;;;;;5044587;28;61760;-77
2022/12/24 12:37:20;;;;;;;;;4.00;3.00;;;;;;;;5043440;28;61711;-77
2022/12/24 12:39:45;;;;;;;;;2.00;1.00;;;;;;;;5044397;28;61878;-77
2022/12/24 12:42:14;;;;;;;;;3.25;1.00;;;;;;;;5044297;28;61595;-77
2022/12/24 12:44:42;;;;;;;;;1.25;0.00;;;;;;;;5044495;28;61735;-77
2022/12/24 12:47:18;;;;;;;;;3.25;1.00;;;;;;;;5041793;28;61819;-77
2022/12/24 12:50:00;;;;;;;;;1.25;0.25;;;;;;;;5043946;28;61971;-77
2022/12/24 12:52:31;;;;;;;;;3.25;0.75;;;;;;;;5042928;28;61994;-77
2022/12/24 12:54:59;;;;;;;;;5.00;1.25;;;;;;;;5044212;28;61880;-77
2022/12/24 12:57:29;;;;;;;;;3.25;2.50;;;;;;;;5043415;28;62807;-77
2022/12/24 12:59:59;;;;;;;;;1.25;1.25;;;;;;;;5042647;28;61830;-77
2022/12/24 13:02:39;;;;;;;;;2.00;2.00;;;;;;;;5043780;28;61780;-77
2022/12/24 13:05:16;;;;;;;;;1.00;1.00;;;;;;;;5043768;28;61853;-77
2022/12/24 13:07:51;;;;;;;;;4.50;2.25;;;;;;;;5043413;28;61789;-77
2022/12/24 13:10:35;;;;;;;;;2.75;1.50;;;;;;;;5052819;28;61797;-75
2022/12/24 13:13:19;;;;;;;;;2.00;2.00;;;;;;;;5043796;28;61735;-77
2022/12/24 13:16:03;;;;;;;;;1.50;0.00;;;;;;;;5042607;28;61876;-77
2022/12/24 13:18:28;;;;;;;;;13.75;10.25;;;;;;;;5041732;28;63738;-77
2022/12/24 13:20:54;;;;;;;;;6.00;3.00;;;;;;;;5043227;28;61684;-77
2022/12/24 13:23:20;;;;;;;;;7.25;4.00;;;;;;;;5043409;28;62317;-77
2022/12/24 13:25:50;;;;;;;;;9.50;7.25;;;;;;;;5044077;28;61805;-77
2022/12/24 13:28:21;;;;;;;;;10.75;8.50;;;;;;;;5041427;28;63645;-77
2022/12/24 13:31:09;;;;;;;;;6.00;2.75;;;;;;;;5042038;28;61873;-77
2022/12/24 13:33:38;;;;;;;;;2.75;2.00;;;;;;;;5041147;28;61837;-77
2022/12/24 13:36:03;;;;;;;;;4.25;3.00;;;;;;;;5043423;28;62498;-77
2022/12/24 13:38:28;;;;;;;;;2.25;2.00;;;;;;;;5042991;28;61843;-77
2022/12/24 13:40:54;;;;;;;;;3.00;3.00;;;;;;;;5043324;28;62116;-77
2022/12/24 13:43:20;;;;;;;;;3.75;2.00;;;;;;;;5041967;28;61891;-77
2022/12/24 13:45:47;;;;;;;;;0.00;0.00;;;;;;;;5043198;28;61819;-77
2022/12/24 13:48:15;;;;;;;;;4.25;2.25;;;;;;;;5042055;28;61860;-77
2022/12/24 13:50:54;;;;;;;;;6.25;2.75;;;;;;;;5041574;28;61867;-77
2022/12/24 13:53:22;;;;;;;;;2.50;2.00;;;;;;;;5042810;28;61730;-77
2022/12/24 13:56:01;;;;;;;;;4.50;2.00;;;;;;;;5043231;28;61750;-77
2022/12/24 13:58:26;;;;;;;;;2.50;2.25;;;;;;;;5042031;28;63011;-77
2022/12/24 14:00:51;;;;;;;;;1.25;1.00;;;;;;;;5043023;28;62087;-76
2022/12/24 14:03:26;;;;;;;;;2.25;2.00;;;;;;;;5041448;28;62420;-76
2022/12/24 14:05:54;;;;;;;;;1.00;1.00;;;;;;;;5043502;28;61748;-77
2022/12/24 14:08:22;;;;;;;;;1.00;1.00;;;;;;;;5042152;28;61828;-76
2022/12/24 14:11:06;;;;;;;;;2.00;2.00;;;;;;;;5042847;28;61781;-77
2022/12/24 14:13:37;;;;;;;;;4.25;4.00;;;;;;;;5042772;28;61686;-76
2022/12/24 14:16:03;;;;;;;;;1.00;1.00;;;;;;;;5041595;28;62015;-77
2022/12/24 14:18:32;;;;;;;;;6.50;6.50;;;;;;;;5042012;28;62610;-76
2022/12/24 14:20:59;;;;;;;;;6.00;4.00;;;;;;;;5042534;28;61825;-76
2022/12/24 14:23:31;;;;;;;;;2.25;1.50;;;;;;;;5042314;28;61787;-76
2022/12/24 14:25:57;;;;;;;;;3.25;3.00;;;;;;;;5043051;28;61905;-76
2022/12/24 14:28:24;;;;;;;;;7.25;3.00;;;;;;;;5041877;28;61749;-76
2022/12/24 14:31:00;;;;;;;;;6.50;4.00;;;;;;;;5042786;28;61778;-77
2022/12/24 14:33:32;;;;;;;;;3.00;1.75;;;;;;;;5042054;28;61799;-76
2022/12/24 14:35:58;;;;;;;;;1.00;1.00;;;;;;;;5041519;28;61986;-76
2022/12/24 14:38:24;;;;;;;;;2.00;2.00;;;;;;;;5041871;28;62745;-77
2022/12/24 14:40:58;;;;;;;;;1.00;1.00;;;;;;;;5042584;28;61773;-76
2022/12/24 14:43:33;;;;;;;;;2.75;2.50;;;;;;;;5041089;28;62045;-76
2022/12/24 14:46:06;;;;;;;;;2.50;1.75;;;;;;;;5042572;28;61760;-77
2022/12/24 14:48:38;;;;;;;;;3.50;2.00;;;;;;;;5041728;28;63054;-76
2022/12/24 14:51:09;;;;;;;;;5.75;2.00;;;;;;;;5042478;28;61940;-77
2022/12/24 14:53:40;;;;;;;;;3.00;3.00;;;;;;;;5042506;28;61742;-76
2022/12/24 14:56:13;;;;;;;;;1.00;1.00;;;;;;;;5041135;28;61860;-76